sensor_id;sensor_type;location;lat;lon;timestamp;P1;durP1;ratioP1;P2;durP2;ratioP2
16385;SDS011;8302;51.154;4.456;2023-12-20T00:00:13;1.33;;;0.70;;
16385;SDS011;8302;51.154;4.456;2023-12-20T00:02:41;2.65;;;1.00;;
16385;SDS011;8302;51.154;4.456;2023-12-20T00:05:14;1.23;;;0.63;;
16385;SDS011;8302;51.154;4.456;2023-12-20T00:07:42;1.73;;;0.80;;
16385;SDS011;8302;51.154;4.456;2023-12-20T00:10:11;2.22;;;1.00;;
16385;SDS011;8302;51.154;4.456;2023-12-20T00:12:40;1.55;;;0.85;;
16385;SDS011;8302;51.154;4.456;2023-12-20T00:15:08;2.33;;;0.85;;
16385;SDS011;8302;51.154;4.456;2023-12-20T00:17:39;1.30;;;0.73;;
16385;SDS011;8302;51.154;4.456;2023-12-20T00:20:11;1.23;;;0.80;;
16385;SDS011;8302;51.154;4.456;2023-12-20T00:22:39;6.20;;;1.08;;
16385;SDS011;8302;51.154;4.456;2023-12-20T00:25:07;2.03;;;0.95;;
16385;SDS011;8302;51.154;4.456;2023-12-20T00:27:36;1.95;;;1.10;;
16385;SDS011;8302;51.154;4.456;2023-12-20T00:30:05;2.95;;;0.98;;
16385;SDS011;8302;51.154;4.456;2023-12-20T00:32:34;2.17;;;0.90;;
16385;SDS011;8302;51.154;4.456;2023-12-20T00:35:05;1.27;;;0.63;;
16385;SDS011;8302;51.154;4.456;2023-12-20T00:37:33;1.08;;;0.43;;
16385;SDS011;8302;51.154;4.456;2023-12-20T00:40:01;6.32;;;1.08;;
16385;SDS011;8302;51.154;4.456;2023-12-20T00:42:29;1.70;;;1.02;;
16385;SDS011;8302;51.154;4.456;2023-12-20T00:44:58;0.60;;;0.60;;
16385;SDS011;8302;51.154;4.456;2023-12-20T00:47:26;2.10;;;0.80;;
16385;SDS011;8302;51.154;4.456;2023-12-20T00:49:59;1.73;;;0.65;;
16385;SDS011;8302;51.154;4.456;2023-12-20T00:52:28;2.95;;;0.82;;
16385;SDS011;8302;51.154;4.456;2023-12-20T00:54:56;0.60;;;0.60;;
16385;SDS011;8302;51.154;4.456;2023-12-20T00:57:25;2.42;;;1.20;;
16385;SDS011;8302;51.154;4.456;2023-12-20T00:59:53;1.17;;;0.70;;
16385;SDS011;8302;51.154;4.456;2023-12-20T01:02:22;1.95;;;0.70;;
16385;SDS011;8302;51.154;4.456;2023-12-20T01:04:50;3.28;;;0.90;;
16385;SDS011;8302;51.154;4.456;2023-12-20T01:07:18;3.97;;;0.85;;
16385;SDS011;8302;51.154;4.456;2023-12-20T01:09:48;0.70;;;0.70;;
16385;SDS011;8302;51.154;4.456;2023-12-20T01:12:16;1.88;;;1.05;;
16385;SDS011;8302;51.154;4.456;2023-12-20T01:14:46;1.75;;;0.70;;
16385;SDS011;8302;51.154;4.456;2023-12-20T01:17:14;5.07;;;0.70;;
16385;SDS011;8302;51.154;4.456;2023-12-20T01:19:44;1.63;;;0.77;;
16385;SDS011;8302;51.154;4.456;2023-12-20T01:22:12;3.20;;;0.93;;
16385;SDS011;8302;51.154;4.456;2023-12-20T01:24:40;2.17;;;0.95;;
16385;SDS011;8302;51.154;4.456;2023-12-20T01:27:17;1.67;;;0.90;;
16385;SDS011;8302;51.154;4.456;2023-12-20T01:29:45;1.55;;;0.93;;
16385;SDS011;8302;51.154;4.456;2023-12-20T01:32:13;1.73;;;0.90;;
16385;SDS011;8302;51.154;4.456;2023-12-20T01:34:41;1.30;;;0.77;;
16385;SDS011;8302;51.154;4.456;2023-12-20T01:37:09;1.60;;;0.98;;
16385;SDS011;8302;51.154;4.456;2023-12-20T01:39:37;2.22;;;1.10;;
16385;SDS011;8302;51.154;4.456;2023-12-20T01:42:06;1.80;;;0.88;;
16385;SDS011;8302;51.154;4.456;2023-12-20T01:44:35;1.95;;;0.68;;
16385;SDS011;8302;51.154;4.456;2023-12-20T01:47:03;1.95;;;1.08;;
16385;SDS011;8302;51.154;4.456;2023-12-20T01:49:32;1.98;;;0.98;;
16385;SDS011;8302;51.154;4.456;2023-12-20T01:52:00;0.70;;;0.70;;
16385;SDS011;8302;51.154;4.456;2023-12-20T01:54:28;1.95;;;0.90;;
16385;SDS011;8302;51.154;4.456;2023-12-20T01:56:57;1.02;;;0.60;;
16385;SDS011;8302;51.154;4.456;2023-12-20T01:59:25;1.13;;;0.88;;
16385;SDS011;8302;51.154;4.456;2023-12-20T02:01:55;3.58;;;1.02;;
16385;SDS011;8302;51.154;4.456;2023-12-20T02:04:25;2.03;;;0.82;;
16385;SDS011;8302;51.154;4.456;2023-12-20T02:06:54;0.95;;;0.60;;
16385;SDS011;8302;51.154;4.456;2023-12-20T02:09:23;3.42;;;1.08;;
16385;SDS011;8302;51.154;4.456;2023-12-20T02:11:51;1.13;;;0.68;;
16385;SDS011;8302;51.154;4.456;2023-12-20T02:14:19;4.07;;;1.02;;
16385;SDS011;8302;51.154;4.456;2023-12-20T02:16:47;3.13;;;1.17;;
16385;SDS011;8302;51.154;4.456;2023-12-20T02:19:17;3.25;;;0.77;;
16385;SDS011;8302;51.154;4.456;2023-12-20T02:21:46;2.90;;;1.10;;
16385;SDS011;8302;51.154;4.456;2023-12-20T02:24:15;1.70;;;1.05;;
16385;SDS011;8302;51.154;4.456;2023-12-20T02:26:44;3.03;;;0.80;;
16385;SDS011;8302;51.154;4.456;2023-12-20T02:29:12;1.35;;;0.93;;
16385;SDS011;8302;51.154;4.456;2023-12-20T02:31:40;3.60;;;1.20;;
16385;SDS011;8302;51.154;4.456;2023-12-20T02:34:09;2.03;;;0.60;;
16385;SDS011;8302;51.154;4.456;2023-12-20T02:36:38;1.55;;;0.90;;
16385;SDS011;8302;51.154;4.456;2023-12-20T02:39:07;3.58;;;0.70;;
16385;SDS011;8302;51.154;4.456;2023-12-20T02:41:35;2.50;;;1.05;;
16385;SDS011;8302;51.154;4.456;2023-12-20T02:44:03;1.35;;;0.88;;
16385;SDS011;8302;51.154;4.456;2023-12-20T02:46:31;3.70;;;1.00;;
16385;SDS011;8302;51.154;4.456;2023-12-20T02:48:58;1.23;;;0.82;;
16385;SDS011;8302;51.154;4.456;2023-12-20T02:51:26;1.00;;;0.73;;
16385;SDS011;8302;51.154;4.456;2023-12-20T02:53:54;1.48;;;0.90;;
16385;SDS011;8302;51.154;4.456;2023-12-20T02:56:23;1.48;;;1.00;;
16385;SDS011;8302;51.154;4.456;2023-12-20T02:58:51;1.02;;;0.90;;
16385;SDS011;8302;51.154;4.456;2023-12-20T03:01:18;1.80;;;1.05;;
16385;SDS011;8302;51.154;4.456;2023-12-20T03:03:46;3.58;;;0.98;;
16385;SDS011;8302;51.154;4.456;2023-12-20T03:06:15;1.75;;;1.33;;
16385;SDS011;8302;51.154;4.456;2023-12-20T03:08:43;3.15;;;1.17;;
16385;SDS011;8302;51.154;4.456;2023-12-20T03:11:10;2.50;;;0.90;;
16385;SDS011;8302;51.154;4.456;2023-12-20T03:13:40;0.98;;;0.75;;
16385;SDS011;8302;51.154;4.456;2023-12-20T03:16:08;2.70;;;1.08;;
16385;SDS011;8302;51.154;4.456;2023-12-20T03:18:36;1.10;;;0.80;;
16385;SDS011;8302;51.154;4.456;2023-12-20T03:21:04;1.05;;;0.80;;
16385;SDS011;8302;51.154;4.456;2023-12-20T03:23:32;2.80;;;1.08;;
16385;SDS011;8302;51.154;4.456;2023-12-20T03:26:00;4.13;;;1.00;;
16385;SDS011;8302;51.154;4.456;2023-12-20T03:28:29;1.88;;;0.90;;
16385;SDS011;8302;51.154;4.456;2023-12-20T03:30:58;2.95;;;0.95;;
16385;SDS011;8302;51.154;4.456;2023-12-20T03:33:26;1.17;;;0.75;;
16385;SDS011;8302;51.154;4.456;2023-12-20T03:35:54;3.47;;;1.05;;
16385;SDS011;8302;51.154;4.456;2023-12-20T03:38:22;2.85;;;1.00;;
16385;SDS011;8302;51.154;4.456;2023-12-20T03:40:50;1.90;;;0.80;;
16385;SDS011;8302;51.154;4.456;2023-12-20T03:43:18;2.50;;;1.15;;
16385;SDS011;8302;51.154;4.456;2023-12-20T03:45:46;2.15;;;1.10;;
16385;SDS011;8302;51.154;4.456;2023-12-20T03:48:15;7.03;;;1.48;;
16385;SDS011;8302;51.154;4.456;2023-12-20T03:50:43;3.28;;;1.10;;
16385;SDS011;8302;51.154;4.456;2023-12-20T03:53:11;3.72;;;0.80;;
16385;SDS011;8302;51.154;4.456;2023-12-20T03:55:38;2.67;;;1.00;;
16385;SDS011;8302;51.154;4.456;2023-12-20T03:58:06;1.13;;;0.80;;
16385;SDS011;8302;51.154;4.456;2023-12-20T04:00:34;4.47;;;1.17;;
16385;SDS011;8302;51.154;4.456;2023-12-20T04:03:02;1.65;;;0.85;;
16385;SDS011;8302;51.154;4.456;2023-12-20T04:05:31;2.58;;;0.90;;
16385;SDS011;8302;51.154;4.456;2023-12-20T04:07:59;5.75;;;1.00;;
16385;SDS011;8302;51.154;4.456;2023-12-20T04:10:27;2.97;;;0.95;;
16385;SDS011;8302;51.154;4.456;2023-12-20T04:12:55;1.00;;;0.60;;
16385;SDS011;8302;51.154;4.456;2023-12-20T04:15:22;2.15;;;1.08;;
16385;SDS011;8302;51.154;4.456;2023-12-20T04:17:50;2.90;;;0.90;;
16385;SDS011;8302;51.154;4.456;2023-12-20T04:20:18;3.30;;;1.13;;
16385;SDS011;8302;51.154;4.456;2023-12-20T04:22:47;1.90;;;1.10;;
16385;SDS011;8302;51.154;4.456;2023-12-20T04:25:15;3.35;;;1.20;;
16385;SDS011;8302;51.154;4.456;2023-12-20T04:27:42;2.53;;;0.70;;
16385;SDS011;8302;51.154;4.456;2023-12-20T04:30:11;1.67;;;0.80;;
16385;SDS011;8302;51.154;4.456;2023-12-20T04:32:39;1.45;;;0.93;;
16385;SDS011;8302;51.154;4.456;2023-12-20T04:35:07;1.83;;;0.90;;
16385;SDS011;8302;51.154;4.456;2023-12-20T04:37:35;1.73;;;1.00;;
16385;SDS011;8302;51.154;4.456;2023-12-20T04:40:05;0.82;;;0.50;;
16385;SDS011;8302;51.154;4.456;2023-12-20T04:42:34;3.30;;;1.15;;
16385;SDS011;8302;51.154;4.456;2023-12-20T04:45:01;3.15;;;1.23;;
16385;SDS011;8302;51.154;4.456;2023-12-20T04:47:29;1.77;;;0.73;;
16385;SDS011;8302;51.154;4.456;2023-12-20T04:49:57;2.60;;;0.70;;
16385;SDS011;8302;51.154;4.456;2023-12-20T04:52:25;1.38;;;0.80;;
16385;SDS011;8302;51.154;4.456;2023-12-20T04:54:53;2.92;;;1.13;;
16385;SDS011;8302;51.154;4.456;2023-12-20T04:57:22;2.03;;;0.88;;
16385;SDS011;8302;51.154;4.456;2023-12-20T04:59:50;1.80;;;1.20;;
16385;SDS011;8302;51.154;4.456;2023-12-20T05:02:17;2.30;;;0.77;;
16385;SDS011;8302;51.154;4.456;2023-12-20T05:04:45;1.50;;;1.02;;
16385;SDS011;8302;51.154;4.456;2023-12-20T05:07:13;3.15;;;1.00;;
16385;SDS011;8302;51.154;4.456;2023-12-20T05:09:41;0.93;;;0.80;;
16385;SDS011;8302;51.154;4.456;2023-12-20T05:12:09;2.88;;;1.08;;
16385;SDS011;8302;51.154;4.456;2023-12-20T05:14:38;4.00;;;1.00;;
16385;SDS011;8302;51.154;4.456;2023-12-20T05:17:06;2.97;;;0.95;;
16385;SDS011;8302;51.154;4.456;2023-12-20T05:19:33;4.20;;;1.17;;
16385;SDS011;8302;51.154;4.456;2023-12-20T05:22:02;1.15;;;0.98;;
16385;SDS011;8302;51.154;4.456;2023-12-20T05:24:30;2.88;;;1.35;;
16385;SDS011;8302;51.154;4.456;2023-12-20T05:26:57;1.40;;;0.90;;
16385;SDS011;8302;51.154;4.456;2023-12-20T05:29:25;2.40;;;1.08;;
16385;SDS011;8302;51.154;4.456;2023-12-20T05:31:54;1.98;;;1.00;;
16385;SDS011;8302;51.154;4.456;2023-12-20T05:34:22;1.67;;;0.93;;
16385;SDS011;8302;51.154;4.456;2023-12-20T05:36:50;2.50;;;1.27;;
16385;SDS011;8302;51.154;4.456;2023-12-20T05:39:18;1.80;;;0.68;;
16385;SDS011;8302;51.154;4.456;2023-12-20T05:41:46;6.78;;;1.20;;
16385;SDS011;8302;51.154;4.456;2023-12-20T05:44:14;2.17;;;0.85;;
16385;SDS011;8302;51.154;4.456;2023-12-20T05:46:42;1.67;;;1.10;;
16385;SDS011;8302;51.154;4.456;2023-12-20T05:49:11;1.58;;;0.95;;
16385;SDS011;8302;51.154;4.456;2023-12-20T05:51:40;4.82;;;1.35;;
16385;SDS011;8302;51.154;4.456;2023-12-20T05:54:08;1.33;;;0.80;;
16385;SDS011;8302;51.154;4.456;2023-12-20T05:56:36;2.95;;;0.90;;
16385;SDS011;8302;51.154;4.456;2023-12-20T05:59:04;2.53;;;1.25;;
16385;SDS011;8302;51.154;4.456;2023-12-20T06:01:31;4.35;;;1.02;;
16385;SDS011;8302;51.154;4.456;2023-12-20T06:03:59;2.35;;;1.02;;
16385;SDS011;8302;51.154;4.456;2023-12-20T06:06:28;3.45;;;1.00;;
16385;SDS011;8302;51.154;4.456;2023-12-20T06:08:57;2.42;;;1.30;;
16385;SDS011;8302;51.154;4.456;2023-12-20T06:11:25;2.58;;;1.40;;
16385;SDS011;8302;51.154;4.456;2023-12-20T06:13:53;2.70;;;0.90;;
16385;SDS011;8302;51.154;4.456;2023-12-20T06:16:21;1.77;;;0.70;;
16385;SDS011;8302;51.154;4.456;2023-12-20T06:18:49;2.08;;;0.93;;
16385;SDS011;8302;51.154;4.456;2023-12-20T06:21:17;1.42;;;0.90;;
16385;SDS011;8302;51.154;4.456;2023-12-20T06:23:46;1.63;;;1.17;;
16385;SDS011;8302;51.154;4.456;2023-12-20T06:26:14;5.38;;;1.40;;
16385;SDS011;8302;51.154;4.456;2023-12-20T06:28:41;1.52;;;1.00;;
16385;SDS011;8302;51.154;4.456;2023-12-20T06:31:09;2.92;;;1.20;;
16385;SDS011;8302;51.154;4.456;2023-12-20T06:33:37;4.57;;;1.10;;
16385;SDS011;8302;51.154;4.456;2023-12-20T06:36:07;1.80;;;1.17;;
16385;SDS011;8302;51.154;4.456;2023-12-20T06:38:35;3.53;;;0.93;;
16385;SDS011;8302;51.154;4.456;2023-12-20T06:41:04;1.85;;;0.90;;
16385;SDS011;8302;51.154;4.456;2023-12-20T06:43:32;4.47;;;1.40;;
16385;SDS011;8302;51.154;4.456;2023-12-20T06:46:15;1.63;;;0.80;;
16385;SDS011;8302;51.154;4.456;2023-12-20T06:48:43;4.22;;;0.90;;
16385;SDS011;8302;51.154;4.456;2023-12-20T06:51:12;4.03;;;1.10;;
16385;SDS011;8302;51.154;4.456;2023-12-20T06:53:40;3.28;;;1.27;;
16385;SDS011;8302;51.154;4.456;2023-12-20T06:56:10;2.58;;;1.30;;
16385;SDS011;8302;51.154;4.456;2023-12-20T06:58:40;3.13;;;1.25;;
16385;SDS011;8302;51.154;4.456;2023-12-20T07:01:10;3.05;;;1.10;;
16385;SDS011;8302;51.154;4.456;2023-12-20T07:03:38;3.33;;;1.00;;
16385;SDS011;8302;51.154;4.456;2023-12-20T07:06:06;5.50;;;1.50;;
16385;SDS011;8302;51.154;4.456;2023-12-20T07:08:34;1.95;;;1.00;;
16385;SDS011;8302;51.154;4.456;2023-12-20T07:11:02;2.60;;;1.23;;
16385;SDS011;8302;51.154;4.456;2023-12-20T07:13:31;4.32;;;1.20;;
16385;SDS011;8302;51.154;4.456;2023-12-20T07:16:00;5.22;;;1.40;;
16385;SDS011;8302;51.154;4.456;2023-12-20T07:18:27;10.32;;;1.40;;
16385;SDS011;8302;51.154;4.456;2023-12-20T07:20:55;2.45;;;1.38;;
16385;SDS011;8302;51.154;4.456;2023-12-20T07:23:23;6.20;;;1.45;;
16385;SDS011;8302;51.154;4.456;2023-12-20T07:25:52;2.40;;;1.10;;
16385;SDS011;8302;51.154;4.456;2023-12-20T07:28:19;2.47;;;1.10;;
16385;SDS011;8302;51.154;4.456;2023-12-20T07:30:49;4.38;;;2.13;;
16385;SDS011;8302;51.154;4.456;2023-12-20T07:33:16;6.35;;;1.80;;
16385;SDS011;8302;51.154;4.456;2023-12-20T07:35:44;2.80;;;1.08;;
16385;SDS011;8302;51.154;4.456;2023-12-20T07:38:12;4.63;;;1.77;;
16385;SDS011;8302;51.154;4.456;2023-12-20T07:40:40;4.97;;;1.98;;
16385;SDS011;8302;51.154;4.456;2023-12-20T07:43:08;5.88;;;1.70;;
16385;SDS011;8302;51.154;4.456;2023-12-20T07:45:36;5.70;;;1.88;;
16385;SDS011;8302;51.154;4.456;2023-12-20T07:48:06;7.25;;;1.70;;
16385;SDS011;8302;51.154;4.456;2023-12-20T07:50:34;5.72;;;1.92;;
16385;SDS011;8302;51.154;4.456;2023-12-20T07:53:02;3.80;;;1.73;;
16385;SDS011;8302;51.154;4.456;2023-12-20T07:55:30;4.45;;;1.55;;
16385;SDS011;8302;51.154;4.456;2023-12-20T07:57:58;8.13;;;2.00;;
16385;SDS011;8302;51.154;4.456;2023-12-20T08:00:26;6.47;;;1.67;;
16385;SDS011;8302;51.154;4.456;2023-12-20T08:02:54;3.20;;;1.50;;
16385;SDS011;8302;51.154;4.456;2023-12-20T08:05:23;6.00;;;1.77;;
16385;SDS011;8302;51.154;4.456;2023-12-20T08:07:51;4.75;;;1.60;;
16385;SDS011;8302;51.154;4.456;2023-12-20T08:10:19;5.32;;;1.50;;
16385;SDS011;8302;51.154;4.456;2023-12-20T08:12:46;8.18;;;2.05;;
16385;SDS011;8302;51.154;4.456;2023-12-20T08:15:14;4.18;;;2.00;;
16385;SDS011;8302;51.154;4.456;2023-12-20T08:17:42;5.38;;;1.83;;
16385;SDS011;8302;51.154;4.456;2023-12-20T08:20:11;3.38;;;1.55;;
16385;SDS011;8302;51.154;4.456;2023-12-20T08:22:46;4.07;;;1.60;;
16385;SDS011;8302;51.154;4.456;2023-12-20T08:25:14;2.22;;;1.23;;
16385;SDS011;8302;51.154;4.456;2023-12-20T08:27:42;4.75;;;1.80;;
16385;SDS011;8302;51.154;4.456;2023-12-20T08:30:10;3.85;;;1.50;;
16385;SDS011;8302;51.154;4.456;2023-12-20T08:32:39;1.95;;;1.33;;
16385;SDS011;8302;51.154;4.456;2023-12-20T08:35:07;1.95;;;1.33;;
16385;SDS011;8302;51.154;4.456;2023-12-20T08:37:35;2.42;;;1.50;;
16385;SDS011;8302;51.154;4.456;2023-12-20T08:40:05;5.10;;;1.52;;
16385;SDS011;8302;51.154;4.456;2023-12-20T08:42:33;5.95;;;1.92;;
16385;SDS011;8302;51.154;4.456;2023-12-20T08:45:01;3.90;;;1.30;;
16385;SDS011;8302;51.154;4.456;2023-12-20T08:47:30;7.47;;;1.63;;
16385;SDS011;8302;51.154;4.456;2023-12-20T08:49:58;4.22;;;1.27;;
16385;SDS011;8302;51.154;4.456;2023-12-20T08:52:27;4.75;;;1.85;;
16385;SDS011;8302;51.154;4.456;2023-12-20T08:54:55;3.30;;;1.45;;
16385;SDS011;8302;51.154;4.456;2023-12-20T08:57:25;4.95;;;1.50;;
16385;SDS011;8302;51.154;4.456;2023-12-20T08:59:52;6.07;;;1.80;;
16385;SDS011;8302;51.154;4.456;2023-12-20T09:02:20;1.83;;;1.30;;
16385;SDS011;8302;51.154;4.456;2023-12-20T09:04:48;2.15;;;1.08;;
16385;SDS011;8302;51.154;4.456;2023-12-20T09:07:22;5.68;;;1.63;;
16385;SDS011;8302;51.154;4.456;2023-12-20T09:09:50;3.20;;;1.40;;
16385;SDS011;8302;51.154;4.456;2023-12-20T09:12:18;2.35;;;1.35;;
16385;SDS011;8302;51.154;4.456;2023-12-20T09:14:48;3.40;;;1.23;;
16385;SDS011;8302;51.154;4.456;2023-12-20T09:17:17;2.25;;;1.30;;
16385;SDS011;8302;51.154;4.456;2023-12-20T09:19:44;2.05;;;1.48;;
16385;SDS011;8302;51.154;4.456;2023-12-20T09:22:12;3.60;;;1.20;;
16385;SDS011;8302;51.154;4.456;2023-12-20T09:24:39;2.13;;;1.38;;
16385;SDS011;8302;51.154;4.456;2023-12-20T09:27:07;2.47;;;1.23;;
16385;SDS011;8302;51.154;4.456;2023-12-20T09:29:35;3.60;;;1.30;;
16385;SDS011;8302;51.154;4.456;2023-12-20T09:32:04;6.15;;;1.67;;
16385;SDS011;8302;51.154;4.456;2023-12-20T09:34:32;5.05;;;1.88;;
16385;SDS011;8302;51.154;4.456;2023-12-20T09:37:00;3.38;;;1.38;;
16385;SDS011;8302;51.154;4.456;2023-12-20T09:39:29;3.63;;;1.45;;
16385;SDS011;8302;51.154;4.456;2023-12-20T09:42:00;3.65;;;1.48;;
16385;SDS011;8302;51.154;4.456;2023-12-20T09:44:28;3.30;;;1.00;;
16385;SDS011;8302;51.154;4.456;2023-12-20T09:46:56;3.72;;;1.33;;
16385;SDS011;8302;51.154;4.456;2023-12-20T09:49:27;2.20;;;1.08;;
16385;SDS011;8302;51.154;4.456;2023-12-20T09:51:55;2.15;;;0.90;;
16385;SDS011;8302;51.154;4.456;2023-12-20T09:54:23;3.75;;;1.40;;
16385;SDS011;8302;51.154;4.456;2023-12-20T09:56:51;1.20;;;1.00;;
16385;SDS011;8302;51.154;4.456;2023-12-20T09:59:19;2.00;;;0.90;;
16385;SDS011;8302;51.154;4.456;2023-12-20T10:01:47;3.95;;;1.30;;
16385;SDS011;8302;51.154;4.456;2023-12-20T10:04:15;1.45;;;0.88;;
16385;SDS011;8302;51.154;4.456;2023-12-20T10:07:01;3.55;;;1.10;;
16385;SDS011;8302;51.154;4.456;2023-12-20T10:09:32;3.80;;;1.20;;
16385;SDS011;8302;51.154;4.456;2023-12-20T10:12:01;2.22;;;1.30;;
16385;SDS011;8302;51.154;4.456;2023-12-20T10:14:29;3.95;;;1.27;;
16385;SDS011;8302;51.154;4.456;2023-12-20T10:17:01;1.98;;;1.05;;
16385;SDS011;8302;51.154;4.456;2023-12-20T10:19:29;5.70;;;1.20;;
16385;SDS011;8302;51.154;4.456;2023-12-20T10:21:58;3.25;;;1.05;;
16385;SDS011;8302;51.154;4.456;2023-12-20T10:24:28;2.28;;;0.90;;
16385;SDS011;8302;51.154;4.456;2023-12-20T10:27:01;2.28;;;1.17;;
16385;SDS011;8302;51.154;4.456;2023-12-20T10:29:31;2.55;;;0.95;;
16385;SDS011;8302;51.154;4.456;2023-12-20T10:32:05;1.38;;;1.02;;
16385;SDS011;8302;51.154;4.456;2023-12-20T10:34:48;3.53;;;0.73;;
16385;SDS011;8302;51.154;4.456;2023-12-20T10:37:18;4.25;;;1.00;;
16385;SDS011;8302;51.154;4.456;2023-12-20T10:39:47;1.35;;;1.00;;
16385;SDS011;8302;51.154;4.456;2023-12-20T10:42:17;7.05;;;1.63;;
16385;SDS011;8302;51.154;4.456;2023-12-20T10:44:46;2.22;;;1.08;;
16385;SDS011;8302;51.154;4.456;2023-12-20T10:47:14;4.40;;;1.33;;
16385;SDS011;8302;51.154;4.456;2023-12-20T10:49:42;4.05;;;1.40;;
16385;SDS011;8302;51.154;4.456;2023-12-20T10:52:11;3.50;;;1.17;;
16385;SDS011;8302;51.154;4.456;2023-12-20T10:54:40;3.63;;;0.70;;
16385;SDS011;8302;51.154;4.456;2023-12-20T10:57:08;1.58;;;0.85;;
16385;SDS011;8302;51.154;4.456;2023-12-20T10:59:36;5.65;;;1.48;;
16385;SDS011;8302;51.154;4.456;2023-12-20T11:02:04;3.25;;;1.20;;
16385;SDS011;8302;51.154;4.456;2023-12-20T11:04:37;1.55;;;0.90;;
16385;SDS011;8302;51.154;4.456;2023-12-20T11:07:08;1.60;;;1.10;;
16385;SDS011;8302;51.154;4.456;2023-12-20T11:09:43;4.43;;;1.35;;
16385;SDS011;8302;51.154;4.456;2023-12-20T11:12:13;8.20;;;1.08;;
16385;SDS011;8302;51.154;4.456;2023-12-20T11:14:44;2.38;;;1.33;;
16385;SDS011;8302;51.154;4.456;2023-12-20T11:17:13;2.17;;;1.25;;
16385;SDS011;8302;51.154;4.456;2023-12-20T11:20:03;1.70;;;1.15;;
16385;SDS011;8302;51.154;4.456;2023-12-20T11:22:32;2.47;;;1.05;;
16385;SDS011;8302;51.154;4.456;2023-12-20T11:25:06;4.38;;;1.30;;
16385;SDS011;8302;51.154;4.456;2023-12-20T11:27:34;2.53;;;1.23;;
16385;SDS011;8302;51.154;4.456;2023-12-20T11:30:03;1.90;;;1.08;;
16385;SDS011;8302;51.154;4.456;2023-12-20T11:32:34;3.47;;;1.35;;
16385;SDS011;8302;51.154;4.456;2023-12-20T11:35:16;4.95;;;1.67;;
16385;SDS011;8302;51.154;4.456;2023-12-20T11:37:44;4.15;;;1.52;;
16385;SDS011;8302;51.154;4.456;2023-12-20T11:40:16;4.65;;;0.90;;
16385;SDS011;8302;51.154;4.456;2023-12-20T11:42:45;2.80;;;1.27;;
16385;SDS011;8302;51.154;4.456;2023-12-20T11:45:13;2.92;;;1.17;;
16385;SDS011;8302;51.154;4.456;2023-12-20T11:47:42;2.83;;;1.25;;
16385;SDS011;8302;51.154;4.456;2023-12-20T11:50:11;1.70;;;0.95;;
16385;SDS011;8302;51.154;4.456;2023-12-20T11:52:38;5.68;;;1.55;;
16385;SDS011;8302;51.154;4.456;2023-12-20T11:55:06;4.93;;;1.23;;
16385;SDS011;8302;51.154;4.456;2023-12-20T11:57:36;4.60;;;1.45;;
16385;SDS011;8302;51.154;4.456;2023-12-20T12:00:04;3.08;;;1.58;;
16385;SDS011;8302;51.154;4.456;2023-12-20T12:02:38;4.32;;;2.03;;
16385;SDS011;8302;51.154;4.456;2023-12-20T12:05:06;4.82;;;1.63;;
16385;SDS011;8302;51.154;4.456;2023-12-20T12:07:34;5.13;;;1.58;;
16385;SDS011;8302;51.154;4.456;2023-12-20T12:10:03;5.22;;;1.88;;
16385;SDS011;8302;51.154;4.456;2023-12-20T12:12:30;4.07;;;1.35;;
16385;SDS011;8302;51.154;4.456;2023-12-20T12:15:00;6.22;;;1.77;;
16385;SDS011;8302;51.154;4.456;2023-12-20T12:17:29;8.52;;;2.10;;
16385;SDS011;8302;51.154;4.456;2023-12-20T12:20:04;12.82;;;2.88;;
16385;SDS011;8302;51.154;4.456;2023-12-20T12:22:32;4.30;;;2.33;;
16385;SDS011;8302;51.154;4.456;2023-12-20T12:25:09;8.27;;;2.45;;
16385;SDS011;8302;51.154;4.456;2023-12-20T12:27:39;9.90;;;2.35;;
16385;SDS011;8302;51.154;4.456;2023-12-20T12:30:09;9.68;;;2.78;;
16385;SDS011;8302;51.154;4.456;2023-12-20T12:32:39;6.53;;;2.30;;
16385;SDS011;8302;51.154;4.456;2023-12-20T12:35:08;8.02;;;2.60;;
16385;SDS011;8302;51.154;4.456;2023-12-20T12:37:37;7.80;;;2.53;;
16385;SDS011;8302;51.154;4.456;2023-12-20T12:40:05;9.55;;;2.67;;
16385;SDS011;8302;51.154;4.456;2023-12-20T12:42:33;3.03;;;1.70;;
16385;SDS011;8302;51.154;4.456;2023-12-20T12:45:02;8.77;;;2.42;;
16385;SDS011;8302;51.154;4.456;2023-12-20T12:47:32;4.60;;;1.80;;
16385;SDS011;8302;51.154;4.456;2023-12-20T12:50:00;11.05;;;2.53;;
16385;SDS011;8302;51.154;4.456;2023-12-20T12:52:28;4.63;;;1.83;;
16385;SDS011;8302;51.154;4.456;2023-12-20T12:54:55;7.95;;;2.60;;
16385;SDS011;8302;51.154;4.456;2023-12-20T12:57:23;6.50;;;1.67;;
16385;SDS011;8302;51.154;4.456;2023-12-20T12:59:51;9.23;;;2.30;;
16385;SDS011;8302;51.154;4.456;2023-12-20T13:02:19;7.03;;;2.05;;
16385;SDS011;8302;51.154;4.456;2023-12-20T13:04:48;5.68;;;2.03;;
16385;SDS011;8302;51.154;4.456;2023-12-20T13:07:16;7.72;;;2.30;;
16385;SDS011;8302;51.154;4.456;2023-12-20T13:09:43;4.47;;;1.88;;
16385;SDS011;8302;51.154;4.456;2023-12-20T13:12:11;6.78;;;1.77;;
16385;SDS011;8302;51.154;4.456;2023-12-20T13:14:39;8.52;;;2.72;;
16385;SDS011;8302;51.154;4.456;2023-12-20T13:17:07;7.97;;;2.33;;
16385;SDS011;8302;51.154;4.456;2023-12-20T13:19:35;6.47;;;2.30;;
16385;SDS011;8302;51.154;4.456;2023-12-20T13:22:04;6.20;;;1.80;;
16385;SDS011;8302;51.154;4.456;2023-12-20T13:24:32;3.42;;;1.90;;
16385;SDS011;8302;51.154;4.456;2023-12-20T13:27:00;7.13;;;1.90;;
16385;SDS011;8302;51.154;4.456;2023-12-20T13:29:28;5.70;;;1.95;;
16385;SDS011;8302;51.154;4.456;2023-12-20T13:31:55;8.98;;;1.83;;
16385;SDS011;8302;51.154;4.456;2023-12-20T13:34:24;4.90;;;1.35;;
16385;SDS011;8302;51.154;4.456;2023-12-20T13:36:52;7.78;;;2.38;;
16385;SDS011;8302;51.154;4.456;2023-12-20T13:39:21;5.20;;;2.13;;
16385;SDS011;8302;51.154;4.456;2023-12-20T13:41:49;3.92;;;1.80;;
16385;SDS011;8302;51.154;4.456;2023-12-20T13:44:17;6.78;;;1.48;;
16385;SDS011;8302;51.154;4.456;2023-12-20T13:46:45;4.70;;;1.90;;
16385;SDS011;8302;51.154;4.456;2023-12-20T13:49:13;7.70;;;1.88;;
16385;SDS011;8302;51.154;4.456;2023-12-20T13:51:41;11.00;;;2.55;;
16385;SDS011;8302;51.154;4.456;2023-12-20T13:54:08;4.53;;;1.63;;
16385;SDS011;8302;51.154;4.456;2023-12-20T13:56:39;3.30;;;1.40;;
16385;SDS011;8302;51.154;4.456;2023-12-20T13:59:22;4.03;;;1.67;;
16385;SDS011;8302;51.154;4.456;2023-12-20T14:01:49;3.65;;;2.03;;
16385;SDS011;8302;51.154;4.456;2023-12-20T14:04:18;5.03;;;1.60;;
16385;SDS011;8302;51.154;4.456;2023-12-20T14:07:05;3.33;;;1.65;;
16385;SDS011;8302;51.154;4.456;2023-12-20T14:09:34;5.22;;;1.92;;
16385;SDS011;8302;51.154;4.456;2023-12-20T14:12:03;3.60;;;1.30;;
16385;SDS011;8302;51.154;4.456;2023-12-20T14:14:31;3.03;;;1.48;;
16385;SDS011;8302;51.154;4.456;2023-12-20T14:16:59;3.30;;;1.35;;
16385;SDS011;8302;51.154;4.456;2023-12-20T14:19:27;2.97;;;1.20;;
16385;SDS011;8302;51.154;4.456;2023-12-20T14:21:55;3.85;;;1.55;;
16385;SDS011;8302;51.154;4.456;2023-12-20T14:24:22;2.53;;;1.20;;
16385;SDS011;8302;51.154;4.456;2023-12-20T14:26:51;4.03;;;1.35;;
16385;SDS011;8302;51.154;4.456;2023-12-20T14:29:20;3.42;;;1.50;;
16385;SDS011;8302;51.154;4.456;2023-12-20T14:31:51;2.33;;;0.85;;
16385;SDS011;8302;51.154;4.456;2023-12-20T14:34:19;5.32;;;1.80;;
16385;SDS011;8302;51.154;4.456;2023-12-20T14:36:46;1.67;;;1.00;;
16385;SDS011;8302;51.154;4.456;2023-12-20T14:39:14;3.05;;;1.40;;
16385;SDS011;8302;51.154;4.456;2023-12-20T14:41:44;3.97;;;1.27;;
16385;SDS011;8302;51.154;4.456;2023-12-20T14:44:11;3.05;;;1.15;;
16385;SDS011;8302;51.154;4.456;2023-12-20T14:46:40;5.45;;;1.00;;
16385;SDS011;8302;51.154;4.456;2023-12-20T14:49:08;1.90;;;1.13;;
16385;SDS011;8302;51.154;4.456;2023-12-20T14:51:36;4.43;;;1.60;;
16385;SDS011;8302;51.154;4.456;2023-12-20T14:54:04;3.33;;;1.38;;
16385;SDS011;8302;51.154;4.456;2023-12-20T14:56:34;7.22;;;1.65;;
16385;SDS011;8302;51.154;4.456;2023-12-20T14:59:02;6.97;;;1.52;;
16385;SDS011;8302;51.154;4.456;2023-12-20T15:01:30;2.15;;;1.08;;
16385;SDS011;8302;51.154;4.456;2023-12-20T15:03:59;2.53;;;1.20;;
16385;SDS011;8302;51.154;4.456;2023-12-20T15:06:27;5.05;;;1.20;;
16385;SDS011;8302;51.154;4.456;2023-12-20T15:08:55;4.13;;;1.10;;